sensor_id;sensor_type;location;lat;lon;timestamp;P1;durP1;ratioP1;P2;durP2;ratioP2
22284;SDS011;11311;52.192;20.900;2024-02-14T00:00:35;22.73;;;12.52;;
22284;SDS011;11311;52.192;20.900;2024-02-14T00:03:04;21.42;;;13.63;;
22284;SDS011;11311;52.192;20.900;2024-02-14T00:05:33;27.25;;;15.07;;
22284;SDS011;11311;52.192;20.900;2024-02-14T00:08:03;23.60;;;13.07;;
22284;SDS011;11311;52.192;20.900;2024-02-14T00:10:32;25.08;;;12.32;;
22284;SDS011;11311;52.192;20.900;2024-02-14T00:13:02;24.00;;;13.60;;
22284;SDS011;11311;52.192;20.900;2024-02-14T00:15:31;19.25;;;13.45;;
22284;SDS011;11311;52.192;20.900;2024-02-14T00:18:00;27.15;;;13.35;;
22284;SDS011;11311;52.192;20.900;2024-02-14T00:20:29;23.15;;;14.30;;
22284;SDS011;11311;52.192;20.900;2024-02-14T00:25:28;28.55;;;13.93;;
22284;SDS011;11311;52.192;20.900;2024-02-14T00:27:58;21.00;;;13.38;;
22284;SDS011;11311;52.192;20.900;2024-02-14T00:30:29;18.85;;;11.63;;
22284;SDS011;11311;52.192;20.900;2024-02-14T00:35:27;21.05;;;13.50;;
22284;SDS011;11311;52.192;20.900;2024-02-14T00:37:56;22.13;;;12.20;;
22284;SDS011;11311;52.192;20.900;2024-02-14T00:40:25;22.77;;;13.45;;
22284;SDS011;11311;52.192;20.900;2024-02-14T00:42:54;20.05;;;12.68;;
22284;SDS011;11311;52.192;20.900;2024-02-14T00:45:22;26.90;;;13.65;;
22284;SDS011;11311;52.192;20.900;2024-02-14T00:47:53;22.17;;;12.55;;
22284;SDS011;11311;52.192;20.900;2024-02-14T00:50:22;21.02;;;12.45;;
22284;SDS011;11311;52.192;20.900;2024-02-14T00:52:50;20.55;;;13.48;;
22284;SDS011;11311;52.192;20.900;2024-02-14T00:55:19;20.10;;;13.25;;
22284;SDS011;11311;52.192;20.900;2024-02-14T00:57:48;22.35;;;13.00;;
22284;SDS011;11311;52.192;20.900;2024-02-14T01:00:17;21.02;;;12.75;;
22284;SDS011;11311;52.192;20.900;2024-02-14T01:02:46;18.98;;;12.23;;
22284;SDS011;11311;52.192;20.900;2024-02-14T01:05:16;24.17;;;12.82;;
22284;SDS011;11311;52.192;20.900;2024-02-14T01:07:45;24.67;;;12.05;;
22284;SDS011;11311;52.192;20.900;2024-02-14T01:10:14;20.83;;;13.20;;
22284;SDS011;11311;52.192;20.900;2024-02-14T01:12:43;16.27;;;11.55;;
22284;SDS011;11311;52.192;20.900;2024-02-14T01:15:12;20.35;;;12.43;;
22284;SDS011;11311;52.192;20.900;2024-02-14T01:17:41;24.60;;;12.25;;
22284;SDS011;11311;52.192;20.900;2024-02-14T01:20:10;24.50;;;12.40;;
22284;SDS011;11311;52.192;20.900;2024-02-14T01:22:40;23.30;;;11.80;;
22284;SDS011;11311;52.192;20.900;2024-02-14T01:27:38;20.85;;;11.93;;
22284;SDS011;11311;52.192;20.900;2024-02-14T01:30:08;20.00;;;12.93;;
22284;SDS011;11311;52.192;20.900;2024-02-14T01:32:38;17.52;;;12.38;;
22284;SDS011;11311;52.192;20.900;2024-02-14T01:35:07;26.45;;;13.18;;
22284;SDS011;11311;52.192;20.900;2024-02-14T01:37:36;18.38;;;12.57;;
22284;SDS011;11311;52.192;20.900;2024-02-14T01:40:08;19.63;;;12.05;;
22284;SDS011;11311;52.192;20.900;2024-02-14T01:42:38;17.92;;;12.60;;
22284;SDS011;11311;52.192;20.900;2024-02-14T01:45:07;19.05;;;12.93;;
22284;SDS011;11311;52.192;20.900;2024-02-14T01:47:36;20.90;;;12.38;;
22284;SDS011;11311;52.192;20.900;2024-02-14T01:50:07;18.73;;;12.95;;
22284;SDS011;11311;52.192;20.900;2024-02-14T01:52:38;27.27;;;13.18;;
22284;SDS011;11311;52.192;20.900;2024-02-14T01:55:08;17.63;;;10.70;;
22284;SDS011;11311;52.192;20.900;2024-02-14T01:57:37;20.42;;;13.90;;
22284;SDS011;11311;52.192;20.900;2024-02-14T02:00:07;24.60;;;13.33;;
22284;SDS011;11311;52.192;20.900;2024-02-14T02:02:39;23.67;;;14.52;;
22284;SDS011;11311;52.192;20.900;2024-02-14T02:05:13;23.33;;;16.15;;
22284;SDS011;11311;52.192;20.900;2024-02-14T02:07:42;23.42;;;15.57;;
22284;SDS011;11311;52.192;20.900;2024-02-14T02:10:17;25.67;;;16.75;;
22284;SDS011;11311;52.192;20.900;2024-02-14T02:12:48;31.90;;;16.90;;
22284;SDS011;11311;52.192;20.900;2024-02-14T02:15:18;27.30;;;17.30;;
22284;SDS011;11311;52.192;20.900;2024-02-14T02:17:47;32.60;;;19.02;;
22284;SDS011;11311;52.192;20.900;2024-02-14T02:20:20;28.63;;;18.25;;
22284;SDS011;11311;52.192;20.900;2024-02-14T02:22:50;33.95;;;19.52;;
22284;SDS011;11311;52.192;20.900;2024-02-14T02:27:53;35.45;;;21.05;;
22284;SDS011;11311;52.192;20.900;2024-02-14T02:30:24;35.33;;;21.08;;
22284;SDS011;11311;52.192;20.900;2024-02-14T02:32:52;34.83;;;21.15;;
22284;SDS011;11311;52.192;20.900;2024-02-14T02:35:22;41.13;;;21.65;;
22284;SDS011;11311;52.192;20.900;2024-02-14T02:37:52;35.97;;;21.17;;
22284;SDS011;11311;52.192;20.900;2024-02-14T02:42:50;37.70;;;22.92;;
22284;SDS011;11311;52.192;20.900;2024-02-14T02:45:19;34.55;;;21.45;;
22284;SDS011;11311;52.192;20.900;2024-02-14T02:47:48;35.22;;;21.08;;
22284;SDS011;11311;52.192;20.900;2024-02-14T02:50:19;34.25;;;21.63;;
22284;SDS011;11311;52.192;20.900;2024-02-14T02:52:48;37.45;;;22.02;;
22284;SDS011;11311;52.192;20.900;2024-02-14T02:55:20;32.05;;;21.02;;
22284;SDS011;11311;52.192;20.900;2024-02-14T02:57:49;38.03;;;22.55;;
22284;SDS011;11311;52.192;20.900;2024-02-14T03:00:20;39.65;;;23.58;;
22284;SDS011;11311;52.192;20.900;2024-02-14T03:02:49;39.33;;;23.05;;
22284;SDS011;11311;52.192;20.900;2024-02-14T03:05:18;44.00;;;23.75;;
22284;SDS011;11311;52.192;20.900;2024-02-14T03:07:50;38.83;;;24.75;;
22284;SDS011;11311;52.192;20.900;2024-02-14T03:10:21;39.10;;;23.63;;
22284;SDS011;11311;52.192;20.900;2024-02-14T03:12:50;42.67;;;25.10;;
22284;SDS011;11311;52.192;20.900;2024-02-14T03:15:19;34.33;;;23.35;;
22284;SDS011;11311;52.192;20.900;2024-02-14T03:17:48;38.83;;;24.73;;
22284;SDS011;11311;52.192;20.900;2024-02-14T03:20:17;41.92;;;23.52;;
22284;SDS011;11311;52.192;20.900;2024-02-14T03:22:46;35.55;;;25.38;;
22284;SDS011;11311;52.192;20.900;2024-02-14T03:25:16;40.03;;;24.55;;
22284;SDS011;11311;52.192;20.900;2024-02-14T03:27:47;37.95;;;25.67;;
22284;SDS011;11311;52.192;20.900;2024-02-14T03:30:20;39.80;;;25.13;;
22284;SDS011;11311;52.192;20.900;2024-02-14T03:32:50;38.60;;;24.83;;
22284;SDS011;11311;52.192;20.900;2024-02-14T03:35:20;41.58;;;25.13;;
22284;SDS011;11311;52.192;20.900;2024-02-14T03:37:49;41.47;;;23.85;;
22284;SDS011;11311;52.192;20.900;2024-02-14T03:40:20;42.33;;;25.20;;
22284;SDS011;11311;52.192;20.900;2024-02-14T03:42:50;49.33;;;24.85;;
22284;SDS011;11311;52.192;20.900;2024-02-14T03:45:20;43.20;;;24.17;;
22284;SDS011;11311;52.192;20.900;2024-02-14T03:47:49;40.75;;;25.83;;
22284;SDS011;11311;52.192;20.900;2024-02-14T03:50:19;37.60;;;25.13;;
22284;SDS011;11311;52.192;20.900;2024-02-14T03:52:47;39.13;;;25.70;;
22284;SDS011;11311;52.192;20.900;2024-02-14T03:55:16;38.83;;;24.13;;
22284;SDS011;11311;52.192;20.900;2024-02-14T03:57:46;39.03;;;25.40;;
22284;SDS011;11311;52.192;20.900;2024-02-14T04:00:17;35.47;;;25.20;;
22284;SDS011;11311;52.192;20.900;2024-02-14T04:02:49;48.28;;;26.77;;
22284;SDS011;11311;52.192;20.900;2024-02-14T04:05:26;42.10;;;25.05;;
22284;SDS011;11311;52.192;20.900;2024-02-14T04:07:55;37.78;;;24.48;;
22284;SDS011;11311;52.192;20.900;2024-02-14T04:10:24;40.63;;;26.65;;
22284;SDS011;11311;52.192;20.900;2024-02-14T04:12:53;40.33;;;24.90;;
22284;SDS011;11311;52.192;20.900;2024-02-14T04:15:25;44.03;;;26.40;;
22284;SDS011;11311;52.192;20.900;2024-02-14T04:17:54;38.38;;;24.08;;
22284;SDS011;11311;52.192;20.900;2024-02-14T04:20:23;39.30;;;24.70;;
22284;SDS011;11311;52.192;20.900;2024-02-14T04:22:51;39.08;;;24.95;;
22284;SDS011;11311;52.192;20.900;2024-02-14T04:25:20;41.83;;;24.35;;
22284;SDS011;11311;52.192;20.900;2024-02-14T04:27:50;40.22;;;24.67;;
22284;SDS011;11311;52.192;20.900;2024-02-14T04:30:18;36.00;;;26.10;;
22284;SDS011;11311;52.192;20.900;2024-02-14T04:32:49;39.65;;;23.83;;
22284;SDS011;11311;52.192;20.900;2024-02-14T04:35:19;37.28;;;23.48;;
22284;SDS011;11311;52.192;20.900;2024-02-14T04:37:48;33.47;;;22.17;;
22284;SDS011;11311;52.192;20.900;2024-02-14T04:40:17;37.80;;;22.98;;
22284;SDS011;11311;52.192;20.900;2024-02-14T04:42:46;34.50;;;20.07;;
22284;SDS011;11311;52.192;20.900;2024-02-14T04:45:15;35.97;;;22.23;;
22284;SDS011;11311;52.192;20.900;2024-02-14T04:47:44;38.67;;;23.92;;
22284;SDS011;11311;52.192;20.900;2024-02-14T04:50:15;36.35;;;23.52;;
22284;SDS011;11311;52.192;20.900;2024-02-14T04:52:45;35.38;;;23.08;;
22284;SDS011;11311;52.192;20.900;2024-02-14T04:55:14;32.40;;;21.92;;
22284;SDS011;11311;52.192;20.900;2024-02-14T04:57:43;38.13;;;23.23;;
22284;SDS011;11311;52.192;20.900;2024-02-14T05:00:13;33.75;;;22.17;;
22284;SDS011;11311;52.192;20.900;2024-02-14T05:02:42;32.35;;;22.77;;
22284;SDS011;11311;52.192;20.900;2024-02-14T05:05:11;32.45;;;21.63;;
22284;SDS011;11311;52.192;20.900;2024-02-14T05:07:41;29.95;;;22.25;;
22284;SDS011;11311;52.192;20.900;2024-02-14T05:10:11;34.70;;;21.40;;
22284;SDS011;11311;52.192;20.900;2024-02-14T05:12:40;32.50;;;20.20;;
22284;SDS011;11311;52.192;20.900;2024-02-14T05:15:09;28.55;;;21.38;;
22284;SDS011;11311;52.192;20.900;2024-02-14T05:17:41;35.42;;;22.35;;
22284;SDS011;11311;52.192;20.900;2024-02-14T05:20:10;33.30;;;20.25;;
22284;SDS011;11311;52.192;20.900;2024-02-14T05:22:39;28.77;;;18.60;;
22284;SDS011;11311;52.192;20.900;2024-02-14T05:25:10;31.55;;;19.65;;
22284;SDS011;11311;52.192;20.900;2024-02-14T05:27:39;30.80;;;19.48;;
22284;SDS011;11311;52.192;20.900;2024-02-14T05:30:08;33.35;;;20.10;;
22284;SDS011;11311;52.192;20.900;2024-02-14T05:32:37;35.37;;;21.33;;
22284;SDS011;11311;52.192;20.900;2024-02-14T05:35:07;29.17;;;19.60;;
22284;SDS011;11311;52.192;20.900;2024-02-14T05:37:36;33.40;;;19.10;;
22284;SDS011;11311;52.192;20.900;2024-02-14T05:40:06;25.77;;;18.17;;
22284;SDS011;11311;52.192;20.900;2024-02-14T05:45:06;33.22;;;20.40;;
22284;SDS011;11311;52.192;20.900;2024-02-14T05:47:37;30.15;;;17.50;;
22284;SDS011;11311;52.192;20.900;2024-02-14T05:50:07;38.38;;;19.75;;
22284;SDS011;11311;52.192;20.900;2024-02-14T05:52:38;31.55;;;18.92;;
22284;SDS011;11311;52.192;20.900;2024-02-14T05:55:07;29.17;;;19.40;;
22284;SDS011;11311;52.192;20.900;2024-02-14T05:57:37;30.35;;;19.67;;
22284;SDS011;11311;52.192;20.900;2024-02-14T06:00:07;33.33;;;17.77;;
22284;SDS011;11311;52.192;20.900;2024-02-14T06:02:38;40.50;;;19.83;;
22284;SDS011;11311;52.192;20.900;2024-02-14T06:05:08;36.47;;;19.47;;
22284;SDS011;11311;52.192;20.900;2024-02-14T06:07:37;25.15;;;14.35;;
22284;SDS011;11311;52.192;20.900;2024-02-14T06:10:07;35.70;;;19.77;;
22284;SDS011;11311;52.192;20.900;2024-02-14T06:12:39;32.88;;;19.38;;
22284;SDS011;11311;52.192;20.900;2024-02-14T06:15:10;39.85;;;20.70;;
22284;SDS011;11311;52.192;20.900;2024-02-14T06:17:39;29.70;;;20.40;;
22284;SDS011;11311;52.192;20.900;2024-02-14T06:20:09;31.33;;;19.58;;
22284;SDS011;11311;52.192;20.900;2024-02-14T06:22:39;26.42;;;18.88;;
22284;SDS011;11311;52.192;20.900;2024-02-14T06:25:22;31.77;;;19.48;;
22284;SDS011;11311;52.192;20.900;2024-02-14T06:27:53;33.80;;;20.17;;
22284;SDS011;11311;52.192;20.900;2024-02-14T06:30:22;28.65;;;19.75;;
22284;SDS011;11311;52.192;20.900;2024-02-14T06:32:56;28.77;;;19.02;;
22284;SDS011;11311;52.192;20.900;2024-02-14T06:35:29;26.35;;;15.82;;
22284;SDS011;11311;52.192;20.900;2024-02-14T06:37:59;32.30;;;17.92;;
22284;SDS011;11311;52.192;20.900;2024-02-14T06:40:31;30.23;;;17.10;;
22284;SDS011;11311;52.192;20.900;2024-02-14T06:43:01;30.15;;;17.73;;
22284;SDS011;11311;52.192;20.900;2024-02-14T06:45:30;27.73;;;17.58;;
22284;SDS011;11311;52.192;20.900;2024-02-14T06:47:59;30.35;;;17.70;;
22284;SDS011;11311;52.192;20.900;2024-02-14T06:50:28;21.17;;;15.88;;
22284;SDS011;11311;52.192;20.900;2024-02-14T06:52:58;29.98;;;16.27;;
22284;SDS011;11311;52.192;20.900;2024-02-14T06:55:27;28.45;;;18.55;;
22284;SDS011;11311;52.192;20.900;2024-02-14T06:57:59;30.38;;;19.05;;
22284;SDS011;11311;52.192;20.900;2024-02-14T07:00:29;31.02;;;19.85;;
22284;SDS011;11311;52.192;20.900;2024-02-14T07:03:00;31.27;;;17.10;;
22284;SDS011;11311;52.192;20.900;2024-02-14T07:07:58;27.95;;;17.02;;
22284;SDS011;11311;52.192;20.900;2024-02-14T07:10:26;24.17;;;15.88;;
22284;SDS011;11311;52.192;20.900;2024-02-14T07:12:55;26.67;;;14.43;;
22284;SDS011;11311;52.192;20.900;2024-02-14T07:15:24;22.33;;;15.77;;
22284;SDS011;11311;52.192;20.900;2024-02-14T07:17:57;26.20;;;15.02;;
22284;SDS011;11311;52.192;20.900;2024-02-14T07:20:26;20.45;;;15.07;;
22284;SDS011;11311;52.192;20.900;2024-02-14T07:22:56;20.10;;;14.73;;
22284;SDS011;11311;52.192;20.900;2024-02-14T07:25:24;23.90;;;15.57;;
22284;SDS011;11311;52.192;20.900;2024-02-14T07:27:53;22.80;;;14.88;;
22284;SDS011;11311;52.192;20.900;2024-02-14T07:30:22;27.70;;;14.60;;
22284;SDS011;11311;52.192;20.900;2024-02-14T07:35:22;17.63;;;12.85;;
22284;SDS011;11311;52.192;20.900;2024-02-14T07:37:51;26.63;;;14.68;;
22284;SDS011;11311;52.192;20.900;2024-02-14T07:40:20;24.50;;;13.98;;
22284;SDS011;11311;52.192;20.900;2024-02-14T07:42:49;21.48;;;14.73;;
22284;SDS011;11311;52.192;20.900;2024-02-14T07:45:18;25.10;;;14.13;;
22284;SDS011;11311;52.192;20.900;2024-02-14T07:47:48;23.33;;;15.30;;
22284;SDS011;11311;52.192;20.900;2024-02-14T07:50:18;27.40;;;15.35;;
22284;SDS011;11311;52.192;20.900;2024-02-14T07:52:48;27.48;;;14.63;;
22284;SDS011;11311;52.192;20.900;2024-02-14T07:55:17;19.15;;;13.07;;
22284;SDS011;11311;52.192;20.900;2024-02-14T07:57:46;27.30;;;15.60;;
22284;SDS011;11311;52.192;20.900;2024-02-14T08:00:15;21.10;;;12.50;;
22284;SDS011;11311;52.192;20.900;2024-02-14T08:02:50;23.00;;;13.07;;
22284;SDS011;11311;52.192;20.900;2024-02-14T08:05:19;21.98;;;14.45;;
22284;SDS011;11311;52.192;20.900;2024-02-14T08:07:49;24.50;;;14.05;;
22284;SDS011;11311;52.192;20.900;2024-02-14T08:10:17;18.73;;;12.23;;
22284;SDS011;11311;52.192;20.900;2024-02-14T08:12:47;14.68;;;12.43;;
22284;SDS011;11311;52.192;20.900;2024-02-14T08:15:16;19.30;;;13.48;;
22284;SDS011;11311;52.192;20.900;2024-02-14T08:17:45;20.70;;;12.73;;
22284;SDS011;11311;52.192;20.900;2024-02-14T08:20:15;18.33;;;12.48;;
22284;SDS011;11311;52.192;20.900;2024-02-14T08:22:44;16.00;;;11.93;;
22284;SDS011;11311;52.192;20.900;2024-02-14T08:25:15;22.23;;;11.77;;
22284;SDS011;11311;52.192;20.900;2024-02-14T08:30:12;25.25;;;13.25;;
22284;SDS011;11311;52.192;20.900;2024-02-14T08:32:42;17.35;;;11.90;;
22284;SDS011;11311;52.192;20.900;2024-02-14T08:35:11;19.80;;;12.60;;
22284;SDS011;11311;52.192;20.900;2024-02-14T08:37:41;18.27;;;11.93;;
22284;SDS011;11311;52.192;20.900;2024-02-14T08:40:10;17.45;;;11.27;;
22284;SDS011;11311;52.192;20.900;2024-02-14T08:42:41;13.70;;;9.10;;
22284;SDS011;11311;52.192;20.900;2024-02-14T08:47:38;13.70;;;10.73;;
22284;SDS011;11311;52.192;20.900;2024-02-14T08:50:08;15.77;;;10.70;;
22284;SDS011;11311;52.192;20.900;2024-02-14T08:52:37;19.73;;;11.40;;
22284;SDS011;11311;52.192;20.900;2024-02-14T08:55:06;14.07;;;10.77;;
22284;SDS011;11311;52.192;20.900;2024-02-14T08:57:43;17.90;;;10.10;;
22284;SDS011;11311;52.192;20.900;2024-02-14T09:00:15;14.95;;;10.20;;
22284;SDS011;11311;52.192;20.900;2024-02-14T09:02:47;18.42;;;11.15;;
22284;SDS011;11311;52.192;20.900;2024-02-14T09:05:16;13.00;;;9.90;;
22284;SDS011;11311;52.192;20.900;2024-02-14T09:07:45;15.27;;;8.82;;
22284;SDS011;11311;52.192;20.900;2024-02-14T09:10:14;11.25;;;8.32;;
22284;SDS011;11311;52.192;20.900;2024-02-14T09:12:45;13.50;;;8.35;;
22284;SDS011;11311;52.192;20.900;2024-02-14T09:17:43;19.38;;;7.65;;
22284;SDS011;11311;52.192;20.900;2024-02-14T09:20:12;12.32;;;6.78;;
22284;SDS011;11311;52.192;20.900;2024-02-14T09:22:42;15.20;;;7.47;;
22284;SDS011;11311;52.192;20.900;2024-02-14T09:25:10;9.80;;;6.82;;
22284;SDS011;11311;52.192;20.900;2024-02-14T09:30:12;15.25;;;7.07;;
22284;SDS011;11311;52.192;20.900;2024-02-14T09:32:58;13.95;;;7.45;;
22284;SDS011;11311;52.192;20.900;2024-02-14T09:35:27;11.05;;;6.63;;
22284;SDS011;11311;52.192;20.900;2024-02-14T09:37:56;10.13;;;6.10;;
22284;SDS011;11311;52.192;20.900;2024-02-14T09:40:26;10.93;;;6.57;;
22284;SDS011;11311;52.192;20.900;2024-02-14T09:42:56;11.68;;;6.50;;
22284;SDS011;11311;52.192;20.900;2024-02-14T09:45:27;8.98;;;6.50;;
22284;SDS011;11311;52.192;20.900;2024-02-14T09:47:56;7.25;;;5.15;;
22284;SDS011;11311;52.192;20.900;2024-02-14T09:50:26;8.48;;;5.68;;
22284;SDS011;11311;52.192;20.900;2024-02-14T09:52:55;7.03;;;5.07;;
22284;SDS011;11311;52.192;20.900;2024-02-14T09:55:24;5.32;;;4.13;;
22284;SDS011;11311;52.192;20.900;2024-02-14T09:57:54;8.70;;;4.38;;
22284;SDS011;11311;52.192;20.900;2024-02-14T10:00:25;10.68;;;4.47;;
22284;SDS011;11311;52.192;20.900;2024-02-14T10:02:55;8.48;;;4.47;;
22284;SDS011;11311;52.192;20.900;2024-02-14T10:05:25;6.15;;;4.03;;
22284;SDS011;11311;52.192;20.900;2024-02-14T10:07:54;10.70;;;3.95;;
22284;SDS011;11311;52.192;20.900;2024-02-14T10:10:25;8.85;;;4.10;;
22284;SDS011;11311;52.192;20.900;2024-02-14T10:12:55;6.20;;;3.42;;
22284;SDS011;11311;52.192;20.900;2024-02-14T10:15:24;6.20;;;3.78;;
22284;SDS011;11311;52.192;20.900;2024-02-14T10:17:54;5.47;;;3.47;;
22284;SDS011;11311;52.192;20.900;2024-02-14T10:20:25;6.78;;;3.50;;
22284;SDS011;11311;52.192;20.900;2024-02-14T10:23:00;7.47;;;3.78;;
22284;SDS011;11311;52.192;20.900;2024-02-14T10:25:30;9.57;;;4.13;;
22284;SDS011;11311;52.192;20.900;2024-02-14T10:28:03;7.35;;;3.33;;
22284;SDS011;11311;52.192;20.900;2024-02-14T10:30:36;4.05;;;2.55;;
22284;SDS011;11311;52.192;20.900;2024-02-14T10:33:07;5.27;;;2.57;;
22284;SDS011;11311;52.192;20.900;2024-02-14T10:35:50;4.75;;;2.63;;
22284;SDS011;11311;52.192;20.900;2024-02-14T10:38:25;4.20;;;2.90;;
22284;SDS011;11311;52.192;20.900;2024-02-14T10:40:54;12.15;;;3.22;;
22284;SDS011;11311;52.192;20.900;2024-02-14T10:43:23;4.95;;;2.88;;
22284;SDS011;11311;52.192;20.900;2024-02-14T10:45:52;5.87;;;2.77;;
22284;SDS011;11311;52.192;20.900;2024-02-14T10:48:23;6.40;;;3.40;;
22284;SDS011;11311;52.192;20.900;2024-02-14T10:50:54;5.18;;;2.55;;
22284;SDS011;11311;52.192;20.900;2024-02-14T10:53:24;4.07;;;2.53;;
22284;SDS011;11311;52.192;20.900;2024-02-14T10:55:54;4.00;;;2.47;;
22284;SDS011;11311;52.192;20.900;2024-02-14T10:58:24;5.22;;;2.72;;
22284;SDS011;11311;52.192;20.900;2024-02-14T11:00:54;5.15;;;2.45;;
22284;SDS011;11311;52.192;20.900;2024-02-14T11:03:24;6.03;;;2.78;;
22284;SDS011;11311;52.192;20.900;2024-02-14T11:05:54;9.25;;;2.58;;
22284;SDS011;11311;52.192;20.900;2024-02-14T11:08:28;5.00;;;2.78;;
22284;SDS011;11311;52.192;20.900;2024-02-14T11:10:59;6.47;;;2.40;;
22284;SDS011;11311;52.192;20.900;2024-02-14T11:13:28;7.05;;;2.20;;
22284;SDS011;11311;52.192;20.900;2024-02-14T11:15:59;6.60;;;2.03;;
22284;SDS011;11311;52.192;20.900;2024-02-14T11:18:30;7.32;;;3.03;;
22284;SDS011;11311;52.192;20.900;2024-02-14T11:21:02;4.68;;;2.67;;
22284;SDS011;11311;52.192;20.900;2024-02-14T11:23:32;6.95;;;2.50;;
22284;SDS011;11311;52.192;20.900;2024-02-14T11:26:02;8.35;;;2.90;;
22284;SDS011;11311;52.192;20.900;2024-02-14T11:31:00;4.60;;;2.28;;
22284;SDS011;11311;52.192;20.900;2024-02-14T11:33:33;6.03;;;3.03;;
22284;SDS011;11311;52.192;20.900;2024-02-14T11:36:07;4.72;;;2.47;;
22284;SDS011;11311;52.192;20.900;2024-02-14T11:38:39;5.72;;;2.80;;
22284;SDS011;11311;52.192;20.900;2024-02-14T11:41:10;10.90;;;3.28;;
22284;SDS011;11311;52.192;20.900;2024-02-14T11:43:38;6.25;;;2.80;;
22284;SDS011;11311;52.192;20.900;2024-02-14T11:46:07;3.17;;;2.70;;
22284;SDS011;11311;52.192;20.900;2024-02-14T11:48:38;3.97;;;2.47;;
22284;SDS011;11311;52.192;20.900;2024-02-14T11:51:10;6.05;;;3.00;;
22284;SDS011;11311;52.192;20.900;2024-02-14T11:53:39;3.70;;;2.50;;
22284;SDS011;11311;52.192;20.900;2024-02-14T11:56:08;4.72;;;2.30;;
22284;SDS011;11311;52.192;20.900;2024-02-14T12:01:07;6.10;;;2.92;;
22284;SDS011;11311;52.192;20.900;2024-02-14T12:03:38;7.67;;;2.80;;
22284;SDS011;11311;52.192;20.900;2024-02-14T12:06:08;5.13;;;2.55;;
22284;SDS011;11311;52.192;20.900;2024-02-14T12:08:38;6.57;;;2.40;;
22284;SDS011;11311;52.192;20.900;2024-02-14T12:11:07;4.25;;;2.25;;
22284;SDS011;11311;52.192;20.900;2024-02-14T12:13:36;3.40;;;2.40;;
22284;SDS011;11311;52.192;20.900;2024-02-14T12:16:10;5.88;;;2.83;;
22284;SDS011;11311;52.192;20.900;2024-02-14T12:18:43;6.32;;;3.50;;
22284;SDS011;11311;52.192;20.900;2024-02-14T12:21:12;6.38;;;2.35;;
22284;SDS011;11311;52.192;20.900;2024-02-14T12:23:41;4.38;;;2.60;;
22284;SDS011;11311;52.192;20.900;2024-02-14T12:26:10;5.97;;;3.38;;
22284;SDS011;11311;52.192;20.900;2024-02-14T12:28:45;7.65;;;3.28;;
22284;SDS011;11311;52.192;20.900;2024-02-14T12:31:21;3.65;;;2.58;;
22284;SDS011;11311;52.192;20.900;2024-02-14T12:33:52;7.55;;;2.80;;
22284;SDS011;11311;52.192;20.900;2024-02-14T12:36:23;10.43;;;3.13;;
22284;SDS011;11311;52.192;20.900;2024-02-14T12:38:51;4.45;;;3.25;;
22284;SDS011;11311;52.192;20.900;2024-02-14T12:41:21;5.97;;;2.65;;
22284;SDS011;11311;52.192;20.900;2024-02-14T12:43:50;7.07;;;3.15;;
22284;SDS011;11311;52.192;20.900;2024-02-14T12:46:19;5.00;;;3.13;;
22284;SDS011;11311;52.192;20.900;2024-02-14T12:48:48;5.65;;;3.25;;
22284;SDS011;11311;52.192;20.900;2024-02-14T12:51:18;3.53;;;2.70;;
22284;SDS011;11311;52.192;20.900;2024-02-14T12:53:48;4.28;;;2.85;;
22284;SDS011;11311;52.192;20.900;2024-02-14T12:56:17;3.58;;;2.53;;
22284;SDS011;11311;52.192;20.900;2024-02-14T12:58:45;4.38;;;2.63;;
22284;SDS011;11311;52.192;20.900;2024-02-14T13:01:15;4.37;;;2.97;;
22284;SDS011;11311;52.192;20.900;2024-02-14T13:03:45;9.80;;;2.88;;
22284;SDS011;11311;52.192;20.900;2024-02-14T13:06:15;4.82;;;2.90;;
22284;SDS011;11311;52.192;20.900;2024-02-14T13:08:46;5.57;;;3.10;;
22284;SDS011;11311;52.192;20.900;2024-02-14T13:11:15;7.15;;;3.08;;
22284;SDS011;11311;52.192;20.900;2024-02-14T13:13:45;5.03;;;3.13;;
22284;SDS011;11311;52.192;20.900;2024-02-14T13:16:14;3.50;;;2.97;;
22284;SDS011;11311;52.192;20.900;2024-02-14T13:18:44;5.55;;;2.90;;
22284;SDS011;11311;52.192;20.900;2024-02-14T13:21:14;5.60;;;2.72;;
22284;SDS011;11311;52.192;20.900;2024-02-14T13:23:45;7.20;;;3.37;;
22284;SDS011;11311;52.192;20.900;2024-02-14T13:26:15;5.68;;;3.45;;
22284;SDS011;11311;52.192;20.900;2024-02-14T13:28:44;5.63;;;3.03;;
22284;SDS011;11311;52.192;20.900;2024-02-14T13:31:13;5.75;;;2.50;;
22284;SDS011;11311;52.192;20.900;2024-02-14T13:33:42;7.75;;;2.67;;
22284;SDS011;11311;52.192;20.900;2024-02-14T13:36:11;4.03;;;2.60;;
22284;SDS011;11311;52.192;20.900;2024-02-14T13:38:43;5.22;;;2.92;;
22284;SDS011;11311;52.192;20.900;2024-02-14T13:43:42;9.00;;;3.17;;
22284;SDS011;11311;52.192;20.900;2024-02-14T13:46:11;5.45;;;2.85;;
22284;SDS011;11311;52.192;20.900;2024-02-14T13:48:41;6.45;;;2.15;;
22284;SDS011;11311;52.192;20.900;2024-02-14T13:51:10;6.68;;;3.10;;
22284;SDS011;11311;52.192;20.900;2024-02-14T13:53:39;5.28;;;2.50;;
22284;SDS011;11311;52.192;20.900;2024-02-14T13:56:08;6.30;;;3.15;;
22284;SDS011;11311;52.192;20.900;2024-02-14T13:58:38;3.88;;;3.00;;
22284;SDS011;11311;52.192;20.900;2024-02-14T14:03:35;4.57;;;2.78;;
22284;SDS011;11311;52.192;20.900;2024-02-14T14:06:05;5.57;;;3.58;;
22284;SDS011;11311;52.192;20.900;2024-02-14T14:08:35;7.80;;;2.17;;
22284;SDS011;11311;52.192;20.900;2024-02-14T14:11:05;10.07;;;3.25;;
22284;SDS011;11311;52.192;20.900;2024-02-14T14:13:35;6.72;;;2.83;;
22284;SDS011;11311;52.192;20.900;2024-02-14T14:16:05;6.10;;;3.42;;
22284;SDS011;11311;52.192;20.900;2024-02-14T14:18:34;9.50;;;3.33;;
22284;SDS011;11311;52.192;20.900;2024-02-14T14:21:04;6.72;;;4.28;;
22284;SDS011;11311;52.192;20.900;2024-02-14T14:23:33;5.65;;;3.38;;
22284;SDS011;11311;52.192;20.900;2024-02-14T14:26:02;5.18;;;3.13;;
22284;SDS011;11311;52.192;20.900;2024-02-14T14:28:31;5.88;;;3.08;;
22284;SDS011;11311;52.192;20.900;2024-02-14T14:30:59;8.00;;;3.72;;
22284;SDS011;11311;52.192;20.900;2024-02-14T14:33:30;9.95;;;3.50;;
22284;SDS011;11311;52.192;20.900;2024-02-14T14:36:00;7.80;;;3.10;;
22284;SDS011;11311;52.192;20.900;2024-02-14T14:38:30;9.15;;;3.28;;
22284;SDS011;11311;52.192;20.900;2024-02-14T14:40:59;8.30;;;3.42;;
22284;SDS011;11311;52.192;20.900;2024-02-14T14:43:28;5.75;;;3.45;;
22284;SDS011;11311;52.192;20.900;2024-02-14T14:45:57;6.93;;;4.43;;
22284;SDS011;11311;52.192;20.900;2024-02-14T14:48:30;6.72;;;3.95;;
22284;SDS011;11311;52.192;20.900;2024-02-14T14:51:00;4.72;;;3.20;;
22284;SDS011;11311;52.192;20.900;2024-02-14T14:53:29;10.60;;;4.28;;
22284;SDS011;11311;52.192;20.900;2024-02-14T14:55:59;5.72;;;3.67;;
22284;SDS011;11311;52.192;20.900;2024-02-14T14:58:27;8.38;;;3.83;;
22284;SDS011;11311;52.192;20.900;2024-02-14T15:01:03;10.10;;;4.22;;
22284;SDS011;11311;52.192;20.900;2024-02-14T15:03:33;8.85;;;4.10;;
22284;SDS011;11311;52.192;20.900;2024-02-14T15:06:02;10.13;;;4.85;;
22284;SDS011;11311;52.192;20.900;2024-02-14T15:08:32;12.27;;;5.60;;
22284;SDS011;11311;52.192;20.900;2024-02-14T15:11:01;12.00;;;5.22;;
22284;SDS011;11311;52.192;20.900;2024-02-14T15:13:29;11.90;;;4.75;;